createdAt,value
2018-10-07T00:00:55.501Z,56134.43
2018-10-07T00:03:24.649Z,56120.04
2018-10-07T00:05:53.812Z,56127.23
2018-10-07T00:08:22.988Z,56080.96
2018-10-07T00:10:52.159Z,56116.95
2018-10-07T00:13:21.361Z,56139.57
2018-10-07T00:15:50.529Z,56101.53
2018-10-07T00:18:19.728Z,56114.90
2018-10-07T00:20:48.924Z,56104.62
2018-10-07T00:23:18.085Z,56133.41
2018-10-07T00:25:47.317Z,56127.23
2018-10-07T00:28:16.501Z,56104.62
2018-10-07T00:30:45.680Z,56123.12
2018-10-07T00:33:14.864Z,56137.52
2018-10-07T00:35:44.025Z,56149.86
2018-10-07T00:38:13.186Z,56117.98
2018-10-07T00:40:42.357Z,56143.69
2018-10-07T00:43:11.540Z,56141.63
2018-10-07T00:45:40.708Z,56097.42
2018-10-07T00:48:09.848Z,56127.23
2018-10-07T00:50:39.005Z,56106.67
2018-10-07T00:53:08.176Z,56150.89
2018-10-07T00:55:37.361Z,56134.43
2018-10-07T00:58:06.548Z,56132.38
2018-10-07T01:00:35.729Z,56109.76
2018-10-07T01:03:04.948Z,56126.21
2018-10-07T01:05:34.131Z,56110.79
2018-10-07T01:08:03.260Z,56092.28
2018-10-07T01:10:32.498Z,56139.57
2018-10-07T01:13:01.681Z,56144.71
2018-10-07T01:15:30.827Z,56135.46
2018-10-07T01:17:59.965Z,56173.51
2018-10-07T01:20:29.173Z,56136.49
2018-10-07T01:22:58.359Z,56122.09
2018-10-07T01:25:27.504Z,56146.77
2018-10-07T01:27:56.661Z,56144.71
2018-10-07T01:30:25.830Z,56148.83
2018-10-07T01:32:55.919Z,56126.21
2018-10-07T01:35:25.435Z,56131.35
2018-10-07T01:37:54.607Z,56148.83
2018-10-07T01:40:23.794Z,56137.52
2018-10-07T01:42:52.952Z,56128.27
2018-10-07T01:45:22.095Z,56152.94
2018-10-07T01:47:51.279Z,56125.18
2018-10-07T01:50:20.437Z,56120.04
2018-10-07T01:52:49.670Z,56140.61
2018-10-07T01:55:18.833Z,56140.61
2018-10-07T01:57:48.024Z,56170.42
2018-10-07T02:00:17.190Z,56147.80
2018-10-07T02:02:46.389Z,56134.43
2018-10-07T02:05:15.621Z,56156.03
2018-10-07T02:07:44.676Z,56106.67
2018-10-07T02:10:13.840Z,56156.03
2018-10-07T02:12:42.991Z,56132.38
2018-10-07T02:15:12.142Z,56125.18
2018-10-07T02:17:41.369Z,56145.75
2018-10-07T02:20:10.549Z,56157.05
2018-10-07T02:22:39.737Z,56140.61
2018-10-07T02:25:08.960Z,56152.94
2018-10-07T02:27:38.121Z,56143.69
2018-10-07T02:30:07.305Z,56139.57
2018-10-07T02:32:36.432Z,56127.23
2018-10-07T02:35:05.610Z,56143.69
2018-10-07T02:37:34.751Z,56145.75
2018-10-07T02:40:04.023Z,56144.71
2018-10-07T02:42:33.162Z,56110.79
2018-10-07T02:45:02.384Z,56146.77
2018-10-07T02:47:31.607Z,56156.03
2018-10-07T02:50:00.777Z,56149.86
2018-10-07T02:52:35.339Z,56135.46
2018-10-07T02:55:04.573Z,56144.71
2018-10-07T02:57:33.715Z,56128.27
2018-10-07T03:00:02.920Z,56142.66
2018-10-07T03:02:32.113Z,56152.94
2018-10-07T03:05:01.288Z,56091.25
2018-10-07T03:07:30.485Z,56160.14
2018-10-07T03:09:59.673Z,56135.46
2018-10-07T03:12:28.841Z,56157.05
2018-10-07T03:14:58.025Z,56135.46
2018-10-07T03:17:27.169Z,56102.56
2018-10-07T03:19:56.341Z,56117.98
2018-10-07T03:22:25.485Z,56107.70
2018-10-07T03:24:54.689Z,56143.69
2018-10-07T03:27:24.335Z,56140.61
2018-10-07T03:29:53.883Z,56137.52
2018-10-07T03:32:23.097Z,56108.73
2018-10-07T03:34:52.280Z,56129.29
2018-10-07T03:37:21.446Z,56139.57
2018-10-07T03:39:50.583Z,56140.61
2018-10-07T03:42:19.772Z,56114.90
2018-10-07T03:44:48.954Z,56142.66
2018-10-07T03:47:18.153Z,56127.23
2018-10-07T03:49:47.321Z,56141.63
2018-10-07T03:52:16.510Z,56105.64
2018-10-07T03:54:45.676Z,56111.81
2018-10-07T03:57:14.925Z,56131.35
2018-10-07T03:59:44.101Z,56101.53
2018-10-07T04:02:13.260Z,56115.93
2018-10-07T04:04:42.426Z,56133.41
2018-10-07T04:07:11.584Z,56105.64
2018-10-07T04:09:40.765Z,56115.93
2018-10-07T04:12:09.993Z,56146.77
2018-10-07T04:14:39.129Z,56147.80
2018-10-07T04:17:08.316Z,56129.29
2018-10-07T04:19:37.499Z,56170.42
2018-10-07T04:22:06.671Z,56108.73
2018-10-07T04:24:36.103Z,56123.12
2018-10-07T04:27:05.282Z,56137.52
2018-10-07T04:29:34.448Z,56177.62
2018-10-07T04:32:03.638Z,56149.86
2018-10-07T04:34:32.798Z,56153.97
2018-10-07T04:37:01.990Z,56119.01
2018-10-07T04:39:31.178Z,56161.17
2018-10-07T04:42:00.385Z,56164.25
2018-10-07T04:44:29.561Z,56156.03
2018-10-07T04:46:58.745Z,56134.43
2018-10-07T04:49:27.905Z,56166.31
2018-10-07T04:51:57.053Z,56150.89
2018-10-07T04:54:26.197Z,56136.49
2018-10-07T04:56:55.367Z,56135.46
2018-10-07T04:59:24.513Z,56134.43
2018-10-07T05:01:53.681Z,56144.71
2018-10-07T05:04:22.831Z,56128.27
2018-10-07T05:06:52.296Z,56126.21
2018-10-07T05:09:21.465Z,56127.23
2018-10-07T05:11:51.867Z,56129.29
2018-10-07T05:14:21.061Z,56128.27
2018-10-07T05:16:52.160Z,56101.53
2018-10-07T05:19:21.435Z,56095.36
2018-10-07T05:21:50.644Z,56142.66
2018-10-07T05:24:19.843Z,56130.32
2018-10-07T05:26:48.998Z,56129.29
2018-10-07T05:29:18.172Z,56123.12
2018-10-07T05:31:47.372Z,56121.07
2018-10-07T05:34:16.540Z,56125.18
2018-10-07T05:36:45.705Z,56122.09
2018-10-07T05:39:14.893Z,56143.69
2018-10-07T05:41:44.056Z,56132.38
2018-10-07T05:44:13.309Z,56121.07
2018-10-07T05:46:42.397Z,56123.12
2018-10-07T05:49:11.548Z,56108.73
2018-10-07T05:51:40.762Z,56136.49
2018-10-07T05:54:09.911Z,56155.00
2018-10-07T05:56:39.341Z,56119.01
2018-10-07T05:59:08.505Z,56121.07
2018-10-07T06:01:41.679Z,56119.01
2018-10-07T06:04:20.120Z,56148.83
2018-10-07T06:06:49.293Z,56147.80
2018-10-07T06:09:25.961Z,56149.86
2018-10-07T06:11:55.840Z,56150.89
2018-10-07T06:14:42.268Z,56121.07
2018-10-07T06:17:11.473Z,56126.21
2018-10-07T06:19:40.628Z,56160.14
2018-10-07T06:22:09.785Z,56135.46
2018-10-07T06:24:38.972Z,56151.91
2018-10-07T06:27:08.101Z,56136.49
2018-10-07T06:29:37.256Z,56129.29
2018-10-07T06:32:06.400Z,56145.75
2018-10-07T06:34:35.577Z,56144.71
2018-10-07T06:37:04.703Z,56132.38
2018-10-07T06:39:33.847Z,56136.49
2018-10-07T06:42:03.019Z,56168.37
2018-10-07T06:44:32.181Z,56143.69
2018-10-07T06:47:01.358Z,56145.75
2018-10-07T06:49:30.501Z,56159.11
2018-10-07T06:51:59.719Z,56178.65
2018-10-07T06:54:28.872Z,56155.00
2018-10-07T06:56:58.031Z,56121.07
2018-10-07T06:59:27.230Z,56168.37
2018-10-07T07:01:56.376Z,56139.57
2018-10-07T07:04:25.507Z,56132.38
2018-10-07T07:06:54.652Z,56153.97
2018-10-07T07:09:23.780Z,56133.41
2018-10-07T07:11:52.954Z,56180.71
2018-10-07T07:14:22.092Z,56174.54
2018-10-07T07:16:51.285Z,56168.37
2018-10-07T07:19:20.420Z,56186.87
2018-10-07T07:21:49.600Z,56178.65
2018-10-07T07:24:18.764Z,56143.69
2018-10-07T07:26:48.005Z,56174.54
2018-10-07T07:29:17.139Z,56181.73
2018-10-07T07:31:46.321Z,56179.68
2018-10-07T07:34:15.472Z,56186.87
2018-10-07T07:36:44.679Z,56204.36
2018-10-07T07:39:13.796Z,56196.13
2018-10-07T07:41:42.964Z,56174.54
2018-10-07T07:44:12.133Z,56170.42
2018-10-07T07:46:41.297Z,56184.82
2018-10-07T07:49:10.533Z,56158.09
2018-10-07T07:51:39.653Z,56168.37
2018-10-07T07:54:08.829Z,56173.51
2018-10-07T07:56:38.062Z,56135.46
2018-10-07T07:59:07.345Z,56162.20
2018-10-07T08:01:36.513Z,56182.76
2018-10-07T08:04:05.748Z,56167.34
2018-10-07T08:06:34.901Z,56139.57
2018-10-07T08:09:05.546Z,56129.29
2018-10-07T08:11:34.676Z,56136.49
2018-10-07T08:14:03.912Z,56181.73
2018-10-07T08:16:33.123Z,56171.45
2018-10-07T08:19:02.262Z,56193.05
2018-10-07T08:21:31.485Z,56156.03
2018-10-07T08:24:00.643Z,56189.96
2018-10-07T08:26:29.736Z,56145.75
2018-10-07T08:28:58.936Z,56166.31
2018-10-07T08:31:28.085Z,56188.93
2018-10-07T08:33:57.246Z,56150.89
2018-10-07T08:36:26.358Z,56184.82
2018-10-07T08:38:55.516Z,56176.59
2018-10-07T08:41:24.682Z,56172.48
2018-10-07T08:43:53.835Z,56174.54
2018-10-07T08:46:22.989Z,56162.20
2018-10-07T08:48:52.178Z,56197.16
2018-10-07T08:51:21.340Z,56181.73
2018-10-07T08:53:50.555Z,56187.90
2018-10-07T08:56:19.718Z,56145.75
2018-10-07T08:58:48.854Z,56150.89
2018-10-07T09:01:18.003Z,56138.55
2018-10-07T09:03:47.148Z,56169.39
2018-10-07T09:06:16.357Z,56069.65
2018-10-07T09:08:45.539Z,56182.76
2018-10-07T09:11:14.608Z,56193.05
2018-10-07T09:13:43.751Z,56141.63
2018-10-07T09:16:12.958Z,56182.76
2018-10-07T09:18:42.101Z,56133.41
2018-10-07T09:21:11.243Z,56137.52
2018-10-07T09:23:40.390Z,56177.62
2018-10-07T09:26:09.554Z,56160.14
2018-10-07T09:28:38.712Z,56181.73
2018-10-07T09:31:08.196Z,56160.14
2018-10-07T09:33:37.349Z,56204.36
2018-10-07T09:36:06.498Z,56143.69
2018-10-07T09:38:35.736Z,56159.11
2018-10-07T09:41:04.881Z,56188.93
2018-10-07T09:43:34.077Z,56129.29
2018-10-07T09:46:03.227Z,56187.90
2018-10-07T09:48:32.403Z,56153.97
2018-10-07T09:51:01.551Z,56164.25
2018-10-07T09:53:30.794Z,56137.52
2018-10-07T09:55:59.935Z,56145.75
2018-10-07T09:58:29.101Z,56155.00
2018-10-07T10:00:58.303Z,56168.37
2018-10-07T10:03:27.496Z,56161.17
2018-10-07T10:05:56.683Z,56135.46
2018-10-07T10:08:25.841Z,56160.14
2018-10-07T10:10:55.030Z,56201.27
2018-10-07T10:13:24.240Z,56213.61
2018-10-07T10:15:53.459Z,56179.68
2018-10-07T10:18:30.684Z,56172.48
2018-10-07T10:21:25.636Z,56155.00
2018-10-07T10:24:04.620Z,56152.94
2018-10-07T10:26:39.697Z,56157.05
2018-10-07T10:29:28.632Z,56144.71
2018-10-07T10:32:10.922Z,56185.85
2018-10-07T10:34:48.104Z,56169.39
2018-10-07T10:37:23.637Z,56185.85
2018-10-07T10:39:57.468Z,56142.66
2018-10-07T10:43:03.404Z,56163.23
2018-10-07T10:45:41.030Z,56155.00
2018-10-07T10:49:21.088Z,56149.86
2018-10-07T10:53:08.676Z,56158.09
2018-10-07T10:55:47.015Z,56143.69
2018-10-07T10:59:32.866Z,56135.46
2018-10-07T11:02:28.009Z,56145.75
2018-10-07T11:05:14.578Z,56125.18
2018-10-07T11:07:58.644Z,56162.20
2018-10-07T11:10:44.593Z,56124.15
2018-10-07T11:15:27.994Z,56129.29
2018-10-07T11:18:19.252Z,56130.32
2018-10-07T11:21:29.293Z,56140.61
2018-10-07T11:24:03.388Z,56112.84
2018-10-07T11:28:52.627Z,56105.64
2018-10-07T11:33:45.775Z,56129.29
2018-10-07T11:37:00.540Z,56133.41
2018-10-07T11:39:47.730Z,56119.01
2018-10-07T11:42:24.083Z,56127.23
2018-10-07T11:45:16.145Z,56112.84
2018-10-07T11:48:11.288Z,56150.89
2018-10-07T11:50:51.881Z,56096.39
2018-10-07T11:53:49.131Z,56119.01
2018-10-07T11:56:18.269Z,56120.04
2018-10-07T11:58:47.397Z,56151.91
2018-10-07T12:01:16.520Z,56121.07
2018-10-07T12:03:45.641Z,56093.30
2018-10-07T12:06:14.828Z,56112.84
2018-10-07T12:08:43.985Z,56104.62
2018-10-07T12:11:13.404Z,56110.79
2018-10-07T12:13:42.550Z,56113.87
2018-10-07T12:16:12.117Z,56129.29
2018-10-07T12:18:41.247Z,56112.84
2018-10-07T12:21:10.452Z,56105.64
2018-10-07T12:23:39.607Z,56095.36
2018-10-07T12:26:08.797Z,56141.63
2018-10-07T12:28:37.949Z,56086.11
2018-10-07T12:31:07.799Z,56092.28
2018-10-07T12:33:37.274Z,56097.42
2018-10-07T12:36:06.935Z,56090.22
2018-10-07T12:38:36.108Z,56086.11
2018-10-07T12:41:05.265Z,56105.64
2018-10-07T12:43:34.485Z,56087.14
2018-10-07T12:46:03.616Z,56098.45
2018-10-07T12:48:33.725Z,56074.80
2018-10-07T12:51:02.897Z,56073.77
2018-10-07T12:53:32.077Z,56070.68
2018-10-07T12:56:01.240Z,56083.02
2018-10-07T12:58:30.400Z,56130.32
2018-10-07T13:00:59.580Z,56094.33
2018-10-07T13:03:28.747Z,56082.00
2018-10-07T13:05:57.943Z,56066.57
2018-10-07T13:08:27.086Z,56083.02
2018-10-07T13:10:56.236Z,56088.16
2018-10-07T13:13:25.346Z,56122.09
2018-10-07T13:15:54.670Z,56153.97
2018-10-07T13:18:23.816Z,56112.84
2018-10-07T13:20:53.038Z,56096.39
2018-10-07T13:23:22.188Z,56100.50
2018-10-07T13:25:51.350Z,56090.22
2018-10-07T13:28:20.541Z,56047.03
2018-10-07T13:30:49.783Z,56073.77
2018-10-07T13:33:18.935Z,56063.48
2018-10-07T13:35:48.091Z,56080.96
2018-10-07T13:38:17.255Z,56086.11
2018-10-07T13:40:46.440Z,56079.94
2018-10-07T13:43:15.589Z,56077.88
2018-10-07T13:45:44.757Z,56035.72
2018-10-07T13:48:13.917Z,56052.18
2018-10-07T13:50:43.121Z,56059.37
2018-10-07T13:53:12.331Z,56061.43
2018-10-07T13:55:41.466Z,56018.24
2018-10-07T13:58:10.585Z,56048.06
2018-10-07T14:00:39.754Z,56088.16
2018-10-07T14:03:08.876Z,56036.75
2018-10-07T14:05:38.002Z,56027.50
2018-10-07T14:08:07.127Z,56049.09
2018-10-07T14:10:36.238Z,56046.00
2018-10-07T14:13:05.394Z,56050.12
2018-10-07T14:15:34.540Z,56141.63
2018-10-07T14:18:03.832Z,56093.30
2018-10-07T14:20:33.047Z,56076.85
2018-10-07T14:26:25.512Z,56041.89
2018-10-07T14:28:54.624Z,56085.08
2018-10-07T14:31:23.720Z,56094.33
2018-10-07T14:33:52.967Z,56089.19
2018-10-07T14:39:19.257Z,56084.05
2018-10-07T14:41:48.365Z,56069.65
2018-10-07T14:44:17.492Z,56095.36
2018-10-07T14:46:46.712Z,56086.11
2018-10-07T14:49:15.950Z,56082.00
2018-10-07T14:52:04.758Z,56127.23
2018-10-07T14:54:33.912Z,56109.76
2018-10-07T14:57:03.004Z,56105.64
2018-10-07T14:59:32.128Z,56065.54
2018-10-07T15:02:01.439Z,56082.00
2018-10-07T15:04:30.609Z,56100.50
2018-10-07T15:06:59.828Z,56075.82
2018-10-07T15:09:29.035Z,56086.11
2018-10-07T15:11:58.093Z,56121.07
2018-10-07T15:14:27.191Z,56090.22
2018-10-07T15:16:56.327Z,56089.19
2018-10-07T15:19:25.445Z,56108.73
2018-10-07T15:21:54.593Z,56099.47
2018-10-07T15:24:23.734Z,56119.01
2018-10-07T15:26:52.857Z,56119.01
2018-10-07T15:29:21.999Z,56113.87
2018-10-07T15:31:51.060Z,56112.84
2018-10-07T15:34:20.219Z,56095.36
2018-10-07T15:36:49.353Z,56085.08
2018-10-07T15:39:18.518Z,56095.36
2018-10-07T15:41:47.612Z,56099.47
2018-10-07T15:44:16.769Z,56093.30
2018-10-07T15:46:45.905Z,56084.05
2018-10-07T15:49:15.032Z,56143.69
2018-10-07T15:51:44.189Z,56111.81
2018-10-07T15:54:13.395Z,56108.73
2018-10-07T15:56:42.582Z,56132.38
2018-10-07T15:59:11.701Z,56104.62
2018-10-07T16:01:40.863Z,56133.41
2018-10-07T16:04:09.965Z,56104.62
2018-10-07T16:06:39.089Z,56134.43
2018-10-07T16:09:09.644Z,56155.00
2018-10-07T16:11:38.784Z,56120.04
2018-10-07T16:14:07.910Z,56086.11
2018-10-07T16:16:37.256Z,56119.01
2018-10-07T16:19:06.434Z,56123.12
2018-10-07T16:21:35.677Z,56110.79
2018-10-07T16:24:04.846Z,56112.84
2018-10-07T16:26:34.056Z,56136.49
2018-10-07T16:29:03.133Z,56120.04
2018-10-07T16:31:32.429Z,56125.18
2018-10-07T16:34:01.605Z,56121.07
2018-10-07T16:36:30.778Z,56113.87
2018-10-07T16:38:59.958Z,56136.49
2018-10-07T16:41:29.104Z,56122.09
2018-10-07T16:43:58.300Z,56119.01
2018-10-07T16:46:27.446Z,56161.17
2018-10-07T16:48:56.582Z,56122.09
2018-10-07T16:51:26.920Z,56142.66
2018-10-07T16:53:56.938Z,56146.77
2018-10-07T16:56:26.199Z,56133.41
2018-10-07T16:58:55.344Z,56132.38
2018-10-07T17:01:24.434Z,56148.83
2018-10-07T17:03:53.603Z,56155.00
2018-10-07T17:06:22.753Z,56141.63
2018-10-07T17:08:51.923Z,56156.03
2018-10-07T17:11:21.145Z,56147.80
2018-10-07T17:13:50.261Z,56142.66
2018-10-07T17:16:19.441Z,56150.89
2018-10-07T17:18:48.728Z,56143.69
2018-10-07T17:21:17.923Z,56176.59
2018-10-07T17:23:47.069Z,56170.42
2018-10-07T17:26:16.252Z,56149.86
2018-10-07T17:28:45.412Z,56169.39
2018-10-07T17:31:14.512Z,56151.91
2018-10-07T17:33:43.639Z,56153.97
2018-10-07T17:36:12.745Z,56146.77
2018-10-07T17:38:41.922Z,56149.86
2018-10-07T17:41:11.124Z,56166.31
2018-10-07T17:43:40.269Z,56170.42
2018-10-07T17:46:09.450Z,56150.89
2018-10-07T17:48:38.700Z,56193.05
2018-10-07T17:51:07.804Z,56176.59
2018-10-07T17:53:36.964Z,56164.25
2018-10-07T17:56:06.353Z,56170.42
2018-10-07T17:58:35.491Z,56182.76
2018-10-07T18:01:04.686Z,56188.93
2018-10-07T18:03:33.853Z,56158.09
2018-10-07T18:06:03.044Z,56197.16
2018-10-07T18:08:32.183Z,56161.17
2018-10-07T18:11:01.312Z,56141.63
2018-10-07T18:13:30.503Z,56195.10
2018-10-07T18:15:59.634Z,56198.19
2018-10-07T18:18:28.856Z,56188.93
2018-10-07T18:20:58.273Z,56149.86
2018-10-07T18:23:27.455Z,56209.50
2018-10-07T18:25:56.652Z,56177.62
2018-10-07T18:28:25.807Z,56193.05
2018-10-07T18:30:55.064Z,56167.34
2018-10-07T18:33:24.216Z,56179.68
2018-10-07T18:35:53.339Z,56141.63
2018-10-07T18:38:22.555Z,56190.99
2018-10-07T18:40:51.690Z,56162.20
2018-10-07T18:43:20.847Z,56200.24
2018-10-07T18:45:50.060Z,56199.21
2018-10-07T18:48:19.274Z,56193.05
2018-10-07T18:50:48.517Z,56194.07
2018-10-07T18:53:17.675Z,56162.20
2018-10-07T18:55:46.835Z,56189.96
2018-10-07T18:58:16.021Z,56168.37
2018-10-07T19:00:45.169Z,56224.92
2018-10-07T19:03:14.354Z,56202.30
2018-10-07T19:05:43.528Z,56202.30
2018-10-07T19:08:12.757Z,56162.20
2018-10-07T19:10:41.933Z,56215.67
2018-10-07T19:13:11.114Z,56188.93
2018-10-07T19:15:40.269Z,56196.13
2018-10-07T19:18:09.435Z,56172.48
2018-10-07T19:20:38.570Z,56182.76
2018-10-07T19:23:07.745Z,56207.44
2018-10-07T19:25:36.945Z,56184.82
2018-10-07T19:28:06.453Z,56184.82
2018-10-07T19:30:35.699Z,56171.45
2018-10-07T19:33:04.888Z,56170.42
2018-10-07T19:35:37.071Z,56203.33
2018-10-07T19:38:06.266Z,56188.93
2018-10-07T19:40:35.428Z,56170.42
2018-10-07T19:43:04.635Z,56162.20
2018-10-07T19:45:33.831Z,56200.24
2018-10-07T19:48:03.013Z,56196.13
2018-10-07T19:50:32.175Z,56205.38
2018-10-07T19:53:01.403Z,56181.73
2018-10-07T19:55:30.580Z,56209.50
2018-10-07T19:57:59.726Z,56199.21
2018-10-07T20:00:28.908Z,56181.73
2018-10-07T20:02:58.067Z,56131.35
2018-10-07T20:05:27.232Z,56214.64
2018-10-07T20:07:56.832Z,56209.50
2018-10-07T20:10:26.097Z,56196.13
2018-10-07T20:12:55.366Z,56224.92
2018-10-07T20:15:24.500Z,56147.80
2018-10-07T20:17:53.627Z,56201.27
2018-10-07T20:20:22.784Z,56161.17
2018-10-07T20:22:51.934Z,56186.87
2018-10-07T20:25:21.133Z,56219.78
2018-10-07T20:27:50.402Z,56187.90
2018-10-07T20:30:19.584Z,56199.21
2018-10-07T20:32:48.747Z,56187.90
2018-10-07T20:35:17.982Z,56199.21
2018-10-07T20:37:47.168Z,56165.28
2018-10-07T20:40:16.423Z,56201.27
2018-10-07T20:42:45.548Z,56212.58
2018-10-07T20:45:14.756Z,56188.93
2018-10-07T20:47:43.901Z,56211.55
2018-10-07T20:50:13.402Z,56193.05
2018-10-07T20:52:42.595Z,56205.38
2018-10-07T20:55:11.799Z,56189.96
2018-10-07T20:57:40.959Z,56208.47
2018-10-07T21:00:10.151Z,56198.19
2018-10-07T21:02:39.391Z,56194.07
2018-10-07T21:05:08.572Z,56211.55
2018-10-07T21:07:37.765Z,56193.05
2018-10-07T21:10:06.909Z,56195.10
2018-10-07T21:12:36.074Z,56205.38
2018-10-07T21:15:05.249Z,56161.17
2018-10-07T21:17:34.475Z,56174.54
2018-10-07T21:20:03.679Z,56203.33
2018-10-07T21:22:32.901Z,56193.05
2018-10-07T21:25:02.135Z,56202.30
2018-10-07T21:27:31.264Z,56203.33
2018-10-07T21:30:00.464Z,56179.68
2018-10-07T21:32:29.628Z,56213.61
2018-10-07T21:34:58.776Z,56220.81
2018-10-07T21:37:27.983Z,56203.33
2018-10-07T21:39:57.112Z,56156.03
2018-10-07T21:42:26.328Z,56182.76
2018-10-07T21:44:55.480Z,56216.70
2018-10-07T21:47:24.698Z,56209.50
2018-10-07T21:49:53.885Z,56182.76
2018-10-07T21:52:23.184Z,56164.25
2018-10-07T21:54:52.377Z,56155.00
2018-10-07T21:57:21.560Z,56218.75
2018-10-07T21:59:50.832Z,56221.84
2018-10-07T22:02:19.973Z,56162.20
2018-10-07T22:04:49.112Z,56199.21
2018-10-07T22:07:18.746Z,56218.75
2018-10-07T22:09:47.889Z,56158.09
2018-10-07T22:12:17.070Z,56186.87
2018-10-07T22:14:46.210Z,56198.19
2018-10-07T22:17:15.360Z,56158.09
2018-10-07T22:19:44.474Z,56190.99
2018-10-07T22:22:13.644Z,56176.59
2018-10-07T22:24:42.804Z,56188.93
2018-10-07T22:27:11.980Z,56205.38
2018-10-07T22:29:41.124Z,56218.75
2018-10-07T22:32:10.275Z,56176.59
2018-10-07T22:34:39.437Z,56201.27
2018-10-07T22:37:08.673Z,56178.65
2018-10-07T22:39:37.882Z,56225.95
2018-10-07T22:42:07.005Z,56199.21
2018-10-07T22:44:36.206Z,56217.72
2018-10-07T22:47:05.380Z,56210.52
2018-10-07T22:49:34.553Z,56196.13
2018-10-07T22:52:03.764Z,56204.36
2018-10-07T22:54:32.956Z,56207.44
2018-10-07T22:57:02.164Z,56170.42
2018-10-07T22:59:31.336Z,56171.45
2018-10-07T23:02:00.542Z,56219.78
2018-10-07T23:04:29.752Z,56197.16
2018-10-07T23:06:58.951Z,56170.42
2018-10-07T23:09:28.092Z,56217.72
2018-10-07T23:11:57.266Z,56199.21
2018-10-07T23:14:26.500Z,56237.26
2018-10-07T23:16:55.678Z,56211.55
2018-10-07T23:19:24.867Z,56216.70
2018-10-07T23:21:54.072Z,56192.02
2018-10-07T23:24:23.254Z,56212.58
2018-10-07T23:26:52.428Z,56219.78
2018-10-07T23:29:21.616Z,56236.23
2018-10-07T23:31:50.798Z,56195.10
2018-10-07T23:34:20.020Z,56211.55
2018-10-07T23:36:49.280Z,56214.64
2018-10-07T23:39:18.434Z,56199.21
2018-10-07T23:41:47.692Z,56236.23
2018-10-07T23:44:16.895Z,56196.13
2018-10-07T23:46:46.020Z,56201.27
2018-10-07T23:49:15.216Z,56223.89
2018-10-07T23:51:44.538Z,56203.33
2018-10-07T23:54:13.570Z,56218.75
2018-10-07T23:56:42.731Z,56213.61
2018-10-07T23:59:11.943Z,56252.69
